Time;durP1;ratioP1;P1;durP2;ratioP2;P2;SDS_P1;SDS_P2;PMS_P1;PMS_P2;Temp;Humidity;BMP_temperature;BMP_pressure;BME280_temperature;BME280_humidity;BME280_pressure;Samples;Min_cycle;Max_cycle;Signal;HPM_P1;HPM_P2
2023/04/12 00:00:23;;;;;;;4.85;4.45;;;;;;;13.08;58.38;97125.50;5051617;28;20177;-61
2023/04/12 00:02:52;;;;;;;4.80;4.32;;;;;;;13.22;58.42;97179.47;5051584;28;20184;-61
2023/04/12 00:05:21;;;;;;;4.95;4.55;;;;;;;12.99;58.98;97136.75;5051282;28;20608;-61
2023/04/12 00:07:52;;;;;;;4.10;3.70;;;;;;;13.05;58.54;97134.41;5051416;28;20201;-61
2023/04/12 00:10:18;;;;;;;5.90;4.13;;;;;;;12.92;58.83;97114.94;5048986;28;20633;-61
2023/04/12 00:12:43;;;;;;;4.75;4.35;;;;;;;13.23;58.47;97160.31;5049281;28;20566;-60
2023/04/12 00:15:09;;;;;;;4.45;3.90;;;;;;;13.13;58.66;97154.41;5049033;28;20190;-61
2023/04/12 00:17:35;;;;;;;4.00;3.70;;;;;;;13.12;58.51;97152.78;5048964;28;20186;-60
2023/04/12 00:20:04;;;;;;;4.95;3.90;;;;;;;13.09;58.87;97153.09;5048919;28;20196;-60
2023/04/12 00:22:29;;;;;;;4.30;4.00;;;;;;;13.07;58.87;97147.22;5048999;28;20205;-60
2023/04/12 00:24:55;;;;;;;4.10;3.80;;;;;;;12.95;58.51;97118.09;5048907;28;20269;-61
2023/04/12 00:27:20;;;;;;;4.07;3.42;;;;;;;13.11;58.36;97143.34;5048932;28;20240;-61
2023/04/12 00:29:45;;;;;;;4.03;3.70;;;;;;;13.12;58.33;97135.41;5048869;28;20273;-61
2023/04/12 00:32:11;;;;;;;3.97;3.67;;;;;;;12.70;58.29;97058.31;5048902;28;20650;-60
2023/04/12 00:34:36;;;;;;;4.25;3.90;;;;;;;12.95;58.37;97109.47;5048834;28;20265;-61
2023/04/12 00:37:01;;;;;;;4.40;4.05;;;;;;;12.96;58.12;97105.94;5048741;28;20280;-61
2023/04/12 00:39:28;;;;;;;4.30;3.60;;;;;;;12.99;58.41;97105.59;5048849;28;20288;-61
2023/04/12 00:41:55;;;;;;;3.70;3.40;;;;;;;13.21;58.01;97131.91;5050302;28;20193;-61
2023/04/12 00:44:21;;;;;;;3.80;3.50;;;;;;;12.96;57.80;97085.16;5051189;28;20178;-61
2023/04/12 00:46:47;;;;;;;3.95;3.60;;;;;;;13.27;57.69;97140.88;5051086;28;20205;-61
2023/04/12 00:49:14;;;;;;;3.88;3.55;;;;;;;13.26;57.75;97145.28;5051097;28;20228;-60
2023/04/12 00:51:40;;;;;;;3.88;3.58;;;;;;;12.96;57.81;97088.56;5053243;28;20169;-60
2023/04/12 00:54:06;;;;;;;4.10;3.80;;;;;;;12.97;57.86;97092.81;5054782;28;20200;-60
2023/04/12 00:56:33;;;;;;;4.10;3.70;;;;;;;13.13;58.45;97128.44;5054538;28;20177;-61
2023/04/12 00:58:59;;;;;;;3.53;3.22;;;;;;;12.95;58.52;97088.69;5054676;28;20679;-60
2023/04/12 01:01:24;;;;;;;4.63;3.47;;;;;;;13.13;58.67;97118.06;5054417;28;20254;-58
2023/04/12 01:03:52;;;;;;;3.67;3.38;;;;;;;13.02;58.87;97097.53;5054565;28;20177;-61
2023/04/12 01:06:46;;;;;;;4.38;3.63;;;;;;;13.10;59.19;97114.00;5054518;28;20630;-59
2023/04/12 01:09:29;;;;;;;3.80;3.50;;;;;;;13.12;59.08;97116.44;5054553;28;20185;-60
2023/04/12 01:12:13;;;;;;;3.25;3.05;;;;;;;13.15;59.12;97105.72;5054510;28;20250;-61
2023/04/12 01:15:06;;;;;;;4.68;4.10;;;;;;;13.08;59.68;97100.31;5054451;28;20182;-60
2023/04/12 01:17:42;;;;;;;3.95;3.65;;;;;;;13.00;59.53;97083.91;5033648;28;20262;-60
2023/04/12 01:20:13;;;;;;;4.10;3.70;;;;;;;13.01;59.73;97080.34;5031996;28;20186;-61
2023/04/12 01:23:04;;;;;;;4.03;3.72;;;;;;;12.99;60.21;97090.03;5031884;28;20182;-59
2023/04/12 01:26:05;;;;;;;4.43;3.97;;;;;;;12.93;60.10;97088.00;5031947;28;20243;-60
2023/04/12 01:28:36;;;;;;;4.07;3.78;;;;;;;12.46;59.96;97014.84;5031770;28;20583;-60
2023/04/12 01:31:03;;;;;;;4.50;4.10;;;;;;;12.60;60.17;97039.44;5031745;28;20191;-60
2023/04/12 01:33:30;;;;;;;3.15;2.95;;;;;;;12.54;59.84;97034.84;5031748;28;20213;-60
2023/04/12 01:36:01;;;;;;;3.72;3.42;;;;;;;12.41;59.96;97005.88;5031604;28;20195;-60
2023/04/12 01:38:28;;;;;;;4.03;3.72;;;;;;;12.72;60.11;97085.75;5031596;28;20190;-60
2023/04/12 01:40:55;;;;;;;6.43;3.63;;;;;;;12.54;60.29;97042.66;5031594;28;20639;-60
2023/04/12 01:43:21;;;;;;;7.85;3.85;;;;;;;12.33;60.22;97000.63;5031534;28;20190;-60
2023/04/12 01:45:46;;;;;;;3.80;3.50;;;;;;;12.38;59.87;96995.81;5031437;28;20610;-60
2023/04/12 01:48:12;;;;;;;3.50;3.30;;;;;;;12.35;59.98;96988.31;5037271;28;20206;-60
2023/04/12 01:50:49;;;;;;;3.83;3.47;;;;;;;12.89;59.88;97084.09;5053706;28;20181;-60
2023/04/12 01:53:43;;;;;;;4.18;3.88;;;;;;;12.73;59.80;97042.47;5053755;28;20207;-60
2023/04/12 01:56:10;;;;;;;3.95;3.65;;;;;;;12.76;59.70;97057.72;5053684;28;20614;-60
2023/04/12 01:58:39;;;;;;;4.30;3.90;;;;;;;12.68;59.64;97044.69;5053749;28;20200;-60
2023/04/12 02:01:05;;;;;;;4.13;3.83;;;;;;;12.69;59.34;97046.31;5053557;28;20649;-60
2023/04/12 02:03:32;;;;;;;4.50;4.10;;;;;;;12.58;59.51;97028.38;5052494;28;20257;-60
2023/04/12 02:05:58;;;;;;;4.28;3.50;;;;;;;12.81;59.17;97076.25;5053463;28;20196;-60
2023/04/12 02:08:25;;;;;;;4.20;3.80;;;;;;;12.47;59.06;97010.47;5053258;28;20292;-60
2023/04/12 02:10:51;;;;;;;3.90;3.58;;;;;;;12.68;59.19;97044.69;5053349;28;20648;-60
2023/04/12 02:13:19;;;;;;;3.78;3.47;;;;;;;12.92;59.26;97083.78;5053397;28;20276;-60
2023/04/12 02:15:44;;;;;;;3.90;3.60;;;;;;;12.93;58.72;97059.47;5053100;28;20635;-60
2023/04/12 02:18:12;;;;;;;3.88;3.55;;;;;;;12.51;58.93;96998.81;5053373;28;20260;-60
2023/04/12 02:20:38;;;;;;;4.07;3.50;;;;;;;13.04;58.67;97085.22;5053308;28;20679;-60
2023/04/12 02:23:04;;;;;;;3.50;3.30;;;;;;;12.55;58.88;97008.75;5053255;28;20204;-60
2023/04/12 02:25:29;;;;;;;4.18;3.60;;;;;;;12.98;58.20;97075.44;5053482;28;20236;-60
2023/04/12 02:27:55;;;;;;;3.85;3.55;;;;;;;12.64;58.50;97028.59;5052724;28;20202;-60
2023/04/12 02:30:21;;;;;;;4.90;3.10;;;;;;;12.44;58.34;97000.41;5053135;28;20174;-60
2023/04/12 02:32:47;;;;;;;3.38;3.17;;;;;;;12.96;58.22;97090.34;5053110;28;20231;-60
2023/04/12 02:35:16;;;;;;;4.25;3.30;;;;;;;12.91;58.40;97071.78;5053038;28;20182;-60
2023/04/12 02:37:45;;;;;;;3.85;2.88;;;;;;;12.41;58.01;96995.50;5052940;28;20189;-60
2023/04/12 02:40:13;;;;;;;4.38;3.40;;;;;;;12.69;58.12;97035.94;5052601;28;20711;-60
2023/04/12 02:42:38;;;;;;;4.03;3.35;;;;;;;12.55;58.42;97002.75;5052536;28;20239;-60
2023/04/12 02:45:04;;;;;;;3.70;3.40;;;;;;;12.89;57.67;97074.53;5052842;28;20182;-60
2023/04/12 02:47:30;;;;;;;3.55;3.25;;;;;;;12.48;57.90;96988.78;5052735;28;20309;-60
2023/04/12 02:49:55;;;;;;;3.65;3.30;;;;;;;12.46;57.84;96993.28;5052697;28;20695;-60
2023/04/12 02:52:21;;;;;;;3.72;3.30;;;;;;;12.45;57.87;96996.84;5052685;28;20262;-60
2023/04/12 02:54:49;;;;;;;3.40;3.17;;;;;;;12.71;57.78;97036.63;5052361;28;20182;-60
2023/04/12 02:57:15;;;;;;;4.85;3.67;;;;;;;12.88;57.97;97056.50;5052209;28;20331;-60
2023/04/12 02:59:40;;;;;;;4.03;3.03;;;;;;;12.94;57.96;97071.47;5052194;28;20717;-61
2023/04/12 03:02:06;;;;;;;3.78;3.47;;;;;;;12.48;58.19;96996.56;5052516;28;20189;-61
2023/04/12 03:04:32;;;;;;;5.28;3.42;;;;;;;12.75;58.17;97030.13;5052444;28;20261;-61
2023/04/12 03:06:58;;;;;;;4.10;3.70;;;;;;;12.79;58.52;97060.03;5052019;28;20628;-60
2023/04/12 03:09:24;;;;;;;3.85;3.55;;;;;;;12.95;58.05;97078.31;5052406;28;20181;-61
2023/04/12 03:11:52;;;;;;;4.20;3.80;;;;;;;12.67;58.24;97024.91;5052293;28;20174;-61
2023/04/12 03:14:17;;;;;;;4.30;3.58;;;;;;;12.72;58.15;97025.25;5051985;28;20605;-61
2023/04/12 03:16:43;;;;;;;3.95;3.65;;;;;;;12.71;58.54;97021.03;5052221;28;20265;-59
2023/04/12 03:19:08;;;;;;;3.65;3.15;;;;;;;12.86;58.31;97053.25;5052249;28;20178;-60
2023/04/12 03:21:34;;;;;;;6.18;3.70;;;;;;;13.00;57.84;97061.34;5052177;28;20549;-61
2023/04/12 03:24:00;;;;;;;3.90;3.60;;;;;;;12.69;57.84;97025.56;5052122;28;20178;-61
2023/04/12 03:26:25;;;;;;;3.63;3.28;;;;;;;12.95;58.14;97076.53;5052147;28;20181;-61
2023/04/12 03:28:59;;;;;;;3.38;3.08;;;;;;;12.77;57.65;97038.59;5051986;28;20735;-60
2023/04/12 03:31:26;;;;;;;3.80;3.50;;;;;;;12.52;57.54;96993.50;5052122;28;20166;-61
2023/04/12 03:33:52;;;;;;;3.92;3.63;;;;;;;12.49;57.75;97004.16;5051941;28;20181;-61
2023/04/12 03:36:19;;;;;;;4.03;3.72;;;;;;;12.70;57.88;97029.78;5052031;28;20169;-61
2023/04/12 03:38:44;;;;;;;5.07;4.35;;;;;;;12.51;57.53;96994.47;5029425;28;20193;-60
2023/04/12 03:41:09;;;;;;;3.90;3.60;;;;;;;12.62;57.86;97017.56;5029647;28;20182;-60
2023/04/12 03:43:36;;;;;;;3.80;3.50;;;;;;;12.95;57.74;97066.16;5029568;28;20247;-60
2023/04/12 03:46:05;;;;;;;4.07;3.63;;;;;;;12.96;57.69;97059.19;5029539;28;20185;-60
2023/04/12 03:48:30;;;;;;;4.20;3.90;;;;;;;12.94;57.64;97061.09;5029465;28;20233;-60
2023/04/12 03:50:58;;;;;;;5.30;3.90;;;;;;;12.52;57.67;96997.84;5029514;28;20182;-60
2023/04/12 03:53:25;;;;;;;5.00;4.18;;;;;;;12.80;57.38;97038.28;5029539;28;20202;-61
2023/04/12 03:55:51;;;;;;;4.50;4.10;;;;;;;12.84;57.22;97031.84;5029467;28;20260;-61
2023/04/12 03:58:17;;;;;;;4.07;3.67;;;;;;;12.76;57.17;97018.78;5029360;28;20636;-61
2023/04/12 04:00:43;;;;;;;3.95;3.60;;;;;;;12.51;57.15;96986.69;5029423;28;20574;-60
2023/04/12 04:03:08;;;;;;;4.40;4.00;;;;;;;12.70;57.46;97034.97;5029369;28;20182;-61
2023/04/12 04:05:35;;;;;;;4.55;4.25;;;;;;;12.66;57.54;97028.47;5029639;28;20178;-59
2023/04/12 04:08:01;;;;;;;4.65;3.67;;;;;;;12.67;57.73;97032.69;5029298;28;20214;-60
2023/04/12 04:10:30;;;;;;;4.60;4.20;;;;;;;12.90;57.63;97064.97;5046715;28;20721;-60
2023/04/12 04:12:55;;;;;;;4.75;4.32;;;;;;;12.93;58.05;97069.84;5051487;28;20182;-59
2023/04/12 04:15:23;;;;;;;6.40;3.90;;;;;;;12.94;57.99;97077.47;5051489;28;20174;-60
2023/04/12 04:17:49;;;;;;;4.50;4.10;;;;;;;12.70;58.04;97046.16;5051466;28;20213;-60
2023/04/12 04:20:14;;;;;;;4.70;4.30;;;;;;;12.44;57.94;97003.00;5051434;28;20335;-60
2023/04/12 04:22:43;;;;;;;5.57;4.57;;;;;;;12.96;58.29;97075.56;5051400;28;20213;-60
2023/04/12 04:25:09;;;;;;;5.05;4.20;;;;;;;12.82;58.33;97057.09;5048848;28;20192;-61
2023/04/12 04:27:37;;;;;;;4.72;4.20;;;;;;;12.75;57.98;97036.16;5052644;28;20217;-60
2023/04/12 04:30:03;;;;;;;4.88;4.47;;;;;;;13.07;58.11;97087.50;5052828;28;20182;-60
2023/04/12 04:32:30;;;;;;;6.50;4.10;;;;;;;13.06;57.92;97091.09;5052858;28;20287;-61
2023/04/12 04:34:58;;;;;;;4.90;4.40;;;;;;;12.54;58.04;97006.31;5052692;28;20578;-60
2023/04/12 04:37:29;;;;;;;5.53;4.20;;;;;;;12.60;58.13;97027.28;5052779;28;20192;-60
2023/04/12 04:39:54;;;;;;;6.53;4.57;;;;;;;12.58;57.98;97012.81;5052732;28;20185;-60
2023/04/12 04:42:20;;;;;;;5.88;4.50;;;;;;;12.82;58.44;97057.09;5052669;28;20178;-60
2023/04/12 04:44:47;;;;;;;4.97;4.45;;;;;;;12.79;57.93;97053.06;5052532;28;20185;-60
2023/04/12 04:47:12;;;;;;;5.90;5.25;;;;;;;13.06;58.04;97080.69;5052499;28;20178;-60
2023/04/12 04:49:37;;;;;;;6.50;4.90;;;;;;;12.84;58.37;97048.19;5052440;28;20562;-61
2023/04/12 04:52:03;;;;;;;4.35;3.95;;;;;;;12.91;58.08;97062.22;5052471;28;20672;-60
2023/04/12 04:54:30;;;;;;;6.35;4.63;;;;;;;12.75;57.86;97022.34;5052388;28;20263;-60
2023/04/12 04:56:56;;;;;;;5.03;4.53;;;;;;;13.04;58.07;97061.84;5054034;28;20259;-60
2023/04/12 04:59:22;;;;;;;5.95;5.30;;;;;;;12.99;58.49;97053.69;5054838;28;20182;-61
2023/04/12 05:01:48;;;;;;;6.88;5.25;;;;;;;12.88;58.35;97027.94;5054437;28;20553;-61
2023/04/12 05:04:13;;;;;;;5.57;4.85;;;;;;;12.80;58.51;97017.53;5054827;28;20204;-61
2023/04/12 05:06:39;;;;;;;5.57;5.07;;;;;;;13.12;58.13;97054.91;5054586;28;20261;-61
2023/04/12 05:09:04;;;;;;;7.15;5.18;;;;;;;13.37;57.95;97092.25;5051133;28;20216;-61
2023/04/12 05:11:30;;;;;;;5.93;5.30;;;;;;;13.40;58.32;97092.75;5051820;28;20305;-60
2023/04/12 05:13:55;;;;;;;5.50;5.00;;;;;;;13.32;58.27;97077.13;5051717;28;20194;-61
2023/04/12 05:16:20;;;;;;;7.35;5.35;;;;;;;13.06;57.99;97024.38;5051998;28;20178;-61
2023/04/12 05:18:46;;;;;;;6.15;5.55;;;;;;;13.67;57.14;97109.94;5051659;28;20185;-61
2023/04/12 05:21:11;;;;;;;7.93;5.22;;;;;;;13.50;57.05;97056.25;5051630;28;20265;-61
2023/04/12 05:23:42;;;;;;;5.57;5.05;;;;;;;13.77;57.22;97121.03;5051630;28;20263;-61
2023/04/12 05:26:07;;;;;;;5.25;4.75;;;;;;;13.59;57.20;97073.50;5011690;28;20223;-61
2023/04/12 05:28:33;;;;;;;7.45;5.75;;;;;;;13.50;57.21;97057.06;5011663;28;20245;-61
2023/04/12 05:30:58;;;;;;;6.63;5.82;;;;;;;13.57;57.53;97068.47;5031312;28;20194;-61
2023/04/12 05:33:24;;;;;;;6.28;5.20;;;;;;;13.78;56.99;97104.44;5031488;28;20240;-60
2023/04/12 05:35:49;;;;;;;6.80;5.57;;;;;;;13.55;57.07;97064.38;5031422;28;20288;-61
2023/04/12 05:38:15;;;;;;;6.40;5.05;;;;;;;13.61;56.97;97059.41;5031130;28;20182;-61
2023/04/12 05:40:42;;;;;;;6.68;5.88;;;;;;;13.84;57.11;97099.47;5046334;28;20255;-61
2023/04/12 05:43:11;;;;;;;6.60;5.43;;;;;;;13.43;57.41;97043.09;5051193;28;20197;-60
2023/04/12 05:45:37;;;;;;;7.07;6.38;;;;;;;13.84;57.40;97120.25;5051084;28;20201;-60
2023/04/12 05:48:02;;;;;;;7.45;5.75;;;;;;;13.44;57.90;97038.69;5051100;28;20210;-60
2023/04/12 05:50:28;;;;;;;5.90;5.13;;;;;;;13.58;57.70;97061.47;5051127;28;20190;-61
2023/04/12 05:52:54;;;;;;;8.43;6.38;;;;;;;13.96;57.89;97132.00;5051111;28;20265;-60
2023/04/12 05:55:20;;;;;;;8.63;5.30;;;;;;;13.88;57.84;97100.75;5051100;28;20189;-60
2023/04/12 05:57:46;;;;;;;8.75;5.88;;;;;;;13.95;57.78;97106.16;5066135;28;20201;-60
2023/04/12 06:00:15;;;;;;;6.88;6.18;;;;;;;13.60;58.32;97060.34;5071026;28;20202;-59
2023/04/12 06:02:44;;;;;;;7.55;6.38;;;;;;;13.92;58.39;97090.84;5056651;28;20185;-59
2023/04/12 06:05:10;;;;;;;7.38;5.85;;;;;;;13.47;58.16;97044.38;5053388;28;20257;-60
2023/04/12 06:07:38;;;;;;;6.70;5.80;;;;;;;13.94;58.47;97107.13;5053320;28;20714;-60
2023/04/12 06:10:04;;;;;;;6.75;5.82;;;;;;;14.01;58.59;97113.31;5053348;28;20178;-59
2023/04/12 06:12:30;;;;;;;7.35;5.93;;;;;;;13.81;59.05;97091.13;5053280;28;20304;-60
2023/04/12 06:14:55;;;;;;;6.53;5.93;;;;;;;13.84;59.04;97075.22;5053178;28;20268;-61
2023/04/12 06:17:21;;;;;;;9.88;6.88;;;;;;;14.14;59.21;97134.50;5053147;28;20174;-61
2023/04/12 06:19:46;;;;;;;7.78;6.97;;;;;;;13.73;59.13;97057.31;5053153;28;20189;-60
2023/04/12 06:22:12;;;;;;;6.28;5.68;;;;;;;14.03;58.84;97100.97;5053066;28;20247;-61
2023/04/12 06:24:37;;;;;;;7.57;6.60;;;;;;;13.99;59.17;97097.06;5052772;28;20178;-60
2023/04/12 06:27:02;;;;;;;7.90;7.10;;;;;;;14.10;59.05;97094.16;5052942;28;20177;-60
2023/04/12 06:29:28;;;;;;;6.90;6.15;;;;;;;13.93;58.37;97056.09;5052899;28;20186;-60
2023/04/12 06:31:53;;;;;;;7.15;5.53;;;;;;;14.27;57.36;97119.25;5052893;28;20614;-60
2023/04/12 06:34:19;;;;;;;6.10;5.40;;;;;;;14.19;57.19;97119.25;5052921;28;20182;-60
2023/04/12 06:36:46;;;;;;;9.13;5.40;;;;;;;14.16;57.07;97086.53;5052791;28;20196;-61
2023/04/12 06:39:12;;;;;;;6.88;5.78;;;;;;;14.18;56.44;97110.59;5052438;28;20719;-61
2023/04/12 06:41:38;;;;;;;5.85;5.25;;;;;;;14.00;55.70;97057.88;5052665;28;20177;-60
2023/04/12 06:44:04;;;;;;;6.13;5.05;;;;;;;14.02;55.40;97053.34;5051827;28;20181;-60
2023/04/12 06:46:30;;;;;;;5.60;4.72;;;;;;;14.60;55.24;97136.59;5052657;28;20178;-61
2023/04/12 06:48:58;;;;;;;5.88;5.28;;;;;;;14.47;54.96;97125.84;5051972;28;20241;-60
2023/04/12 06:51:24;;;;;;;4.95;4.50;;;;;;;14.07;54.95;97063.28;5052721;28;20173;-60
2023/04/12 06:53:49;;;;;;;5.22;4.72;;;;;;;14.10;54.82;97068.97;5052666;28;20224;-60
2023/04/12 06:56:15;;;;;;;5.45;4.35;;;;;;;14.34;54.67;97096.88;5052627;28;20208;-60
2023/04/12 06:58:40;;;;;;;5.72;5.22;;;;;;;14.58;55.02;97143.75;5052780;28;20197;-60
2023/04/12 07:01:06;;;;;;;6.55;5.35;;;;;;;14.58;55.21;97141.94;5052548;28;20178;-60
2023/04/12 07:03:32;;;;;;;8.60;6.32;;;;;;;14.01;55.11;97074.31;5052496;28;20177;-60
2023/04/12 07:06:01;;;;;;;6.38;5.60;;;;;;;14.37;55.47;97143.38;5052499;28;20979;-60
2023/04/12 07:08:32;;;;;;;5.88;5.30;;;;;;;14.18;54.12;97108.00;5049779;28;20217;-60
2023/04/12 07:10:57;;;;;;;4.78;4.38;;;;;;;14.01;53.73;97089.91;5050027;28;20273;-60
2023/04/12 07:13:23;;;;;;;6.05;5.38;;;;;;;13.98;54.27;97069.41;5049928;28;20575;-61
2023/04/12 07:15:49;;;;;;;5.55;4.90;;;;;;;14.41;54.71;97126.47;5050160;28;20169;-61
2023/04/12 07:18:15;;;;;;;5.95;5.35;;;;;;;14.11;54.90;97075.00;5049816;28;20282;-61
2023/04/12 07:20:40;;;;;;;5.20;4.80;;;;;;;14.38;54.91;97113.75;5049853;28;20181;-61
2023/04/12 07:23:06;;;;;;;6.97;5.55;;;;;;;14.33;55.34;97100.41;5049192;28;20288;-61
2023/04/12 07:25:31;;;;;;;6.63;5.45;;;;;;;14.33;54.96;97095.22;5029316;28;20195;-61
2023/04/12 07:27:56;;;;;;;5.30;4.80;;;;;;;14.48;54.24;97112.66;5029381;28;20210;-61
2023/04/12 07:30:22;;;;;;;5.43;4.82;;;;;;;14.70;53.79;97147.66;5029520;28;20190;-61
2023/04/12 07:32:47;;;;;;;5.13;4.68;;;;;;;14.50;53.83;97113.31;5029499;28;20185;-60
2023/04/12 07:35:13;;;;;;;5.57;3.95;;;;;;;14.22;51.86;97093.72;5029442;28;20179;-61
2023/04/12 07:37:38;;;;;;;3.47;3.17;;;;;;;14.43;51.18;97111.50;5029457;28;20224;-61
2023/04/12 07:40:05;;;;;;;6.38;3.05;;;;;;;14.69;50.70;97146.03;5049076;28;20190;-61
2023/04/12 07:42:30;;;;;;;2.35;2.13;;;;;;;14.56;49.42;97138.69;5049189;28;20190;-60
2023/04/12 07:44:56;;;;;;;3.78;1.90;;;;;;;14.61;49.71;97141.63;5049191;28;20189;-60
2023/04/12 07:47:21;;;;;;;1.65;1.55;;;;;;;14.57;48.82;97123.91;5049426;28;20332;-61
2023/04/12 07:49:46;;;;;;;1.50;1.35;;;;;;;14.58;47.62;97141.16;5049123;28;20272;-61
2023/04/12 07:52:12;;;;;;;1.20;1.20;;;;;;;14.21;48.14;97080.88;5049163;28;20333;-60
2023/04/12 07:54:37;;;;;;;2.17;1.98;;;;;;;14.63;47.88;97151.91;5049120;28;20244;-60
2023/04/12 07:57:03;;;;;;;1.98;1.77;;;;;;;14.29;48.59;97099.13;5048935;28;20201;-60
2023/04/12 07:59:29;;;;;;;3.15;1.52;;;;;;;14.06;47.96;97075.44;5049475;28;20186;-60
2023/04/12 08:01:55;;;;;;;4.55;1.35;;;;;;;14.14;47.82;97090.25;5054788;28;20177;-60
2023/04/12 08:04:20;;;;;;;2.97;1.70;;;;;;;14.70;47.32;97145.06;5073337;28;20245;-60
2023/04/12 08:06:46;;;;;;;2.15;2.05;;;;;;;14.79;46.82;97115.44;5073443;28;20667;-60
2023/04/12 08:09:12;;;;;;;2.67;2.47;;;;;;;15.07;47.80;97125.38;5073430;28;20227;-60
2023/04/12 08:11:37;;;;;;;3.90;2.63;;;;;;;15.17;47.94;97106.97;5060056;28;20340;-60
2023/04/12 08:14:02;;;;;;;4.18;2.80;;;;;;;15.37;48.20;97093.44;5055700;28;20655;-60
2023/04/12 08:16:28;;;;;;;4.88;3.05;;;;;;;15.56;48.22;97097.47;5055402;28;20258;-60
2023/04/12 08:18:53;;;;;;;3.50;3.20;;;;;;;15.84;47.33;97127.34;5055643;28;20175;-60
2023/04/12 08:21:18;;;;;;;3.30;3.00;;;;;;;15.68;46.80;97096.13;5055590;28;20667;-61
2023/04/12 08:23:44;;;;;;;4.15;3.15;;;;;;;15.71;47.11;97080.97;5055273;28;20206;-61
2023/04/12 08:26:10;;;;;;;4.00;3.35;;;;;;;15.56;47.28;97035.72;5055528;28;20173;-61
2023/04/12 08:28:35;;;;;;;3.60;3.30;;;;;;;15.73;47.03;97079.00;5055349;28;20665;-61
2023/04/12 08:31:02;;;;;;;2.65;2.40;;;;;;;15.66;46.51;97124.97;5055409;28;20244;-60
2023/04/12 08:33:27;;;;;;;2.65;2.45;;;;;;;15.50;47.18;97098.13;5055294;28;20205;-60
2023/04/12 08:35:53;;;;;;;6.00;2.30;;;;;;;15.22;47.39;97045.56;5055296;28;20197;-60
2023/04/12 08:38:18;;;;;;;2.20;2.00;;;;;;;15.53;45.87;97071.72;5055281;28;20235;-61
2023/04/12 08:40:46;;;;;;;3.35;2.60;;;;;;;15.78;45.61;97078.47;5055192;28;20177;-61
2023/04/12 08:43:11;;;;;;;2.60;2.40;;;;;;;15.62;44.43;97044.66;5055385;28;20212;-61
2023/04/12 08:45:37;;;;;;;3.83;2.65;;;;;;;15.81;44.64;97071.13;5055160;28;20205;-61
2023/04/12 08:48:06;;;;;;;3.42;2.45;;;;;;;16.02;44.44;97094.84;5055228;28;20759;-61
2023/04/12 08:50:31;;;;;;;2.20;1.95;;;;;;;16.03;44.48;97095.66;5054993;28;20186;-61
2023/04/12 08:52:58;;;;;;;3.20;2.30;;;;;;;15.83;43.64;97048.31;5054985;28;20656;-61
2023/04/12 08:55:24;;;;;;;4.45;2.30;;;;;;;15.96;43.60;97056.38;5072329;28;20246;-61
2023/04/12 08:57:52;;;;;;;4.13;2.25;;;;;;;15.92;43.48;97023.00;5072306;28;20620;-61
2023/04/12 09:00:19;;;;;;;2.55;2.35;;;;;;;16.33;43.84;97085.19;5072489;28;20185;-61
2023/04/12 09:02:47;;;;;;;3.28;2.55;;;;;;;16.02;44.00;97026.19;5072436;28;20203;-61
2023/04/12 09:05:14;;;;;;;4.07;2.65;;;;;;;16.55;43.50;97109.75;5072327;28;20216;-61
2023/04/12 09:07:40;;;;;;;4.55;2.40;;;;;;;16.16;43.19;97062.78;5072246;28;20636;-61
2023/04/12 09:10:06;;;;;;;3.28;2.30;;;;;;;16.26;43.41;97070.41;5072278;28;20740;-61
2023/04/12 09:12:32;;;;;;;3.00;2.80;;;;;;;16.30;43.88;97087.34;5071514;28;20188;-61
2023/04/12 09:15:16;;;;;;;2.67;2.47;;;;;;;16.26;44.26;97086.09;5072173;28;20270;-61
2023/04/12 09:17:42;;;;;;;2.47;2.28;;;;;;;16.47;43.99;97099.34;5072140;28;20209;-61
2023/04/12 09:20:16;;;;;;;2.08;1.90;;;;;;;16.34;44.90;97126.00;5072021;28;20330;-61
2023/04/12 09:22:45;;;;;;;2.30;2.10;;;;;;;16.25;45.36;97123.59;5072012;28;20557;-61
2023/04/12 09:25:14;;;;;;;2.10;1.90;;;;;;;15.82;45.98;97090.19;5071902;28;20222;-61
2023/04/12 09:27:46;;;;;;;1.80;1.70;;;;;;;15.47;45.02;97041.13;5054305;28;20307;-60
2023/04/12 09:30:13;;;;;;;1.90;1.80;;;;;;;15.77;44.14;97110.75;5052058;28;20200;-61
2023/04/12 09:32:40;;;;;;;2.22;2.03;;;;;;;15.07;43.92;97031.59;5054284;28;20174;-60
2023/04/12 09:35:06;;;;;;;1.95;1.85;;;;;;;15.17;44.15;97047.03;5054255;28;20178;-60
2023/04/12 09:37:31;;;;;;;2.20;2.00;;;;;;;15.81;43.32;97104.22;5054041;28;20281;-60
2023/04/12 09:40:04;;;;;;;2.05;1.88;;;;;;;15.59;43.68;97060.63;5054417;28;20261;-61
2023/04/12 09:42:34;;;;;;;2.40;2.20;;;;;;;15.84;44.09;97069.97;5054090;28;20181;-61
2023/04/12 09:45:17;;;;;;;1.85;1.75;;;;;;;16.18;44.05;97091.34;5054117;28;20706;-61
2023/04/12 09:47:42;;;;;;;2.22;2.13;;;;;;;16.36;44.26;97091.88;5053985;28;20216;-61
2023/04/12 09:50:08;;;;;;;3.30;1.80;;;;;;;16.31;43.55;97036.75;5053878;28;20652;-61
2023/04/12 09:52:37;;;;;;;1.67;1.58;;;;;;;16.76;42.20;97122.97;5053908;28;20178;-61
2023/04/12 09:55:11;;;;;;;1.73;1.63;;;;;;;16.29;42.10;97025.69;5053855;28;20819;-60
2023/04/12 09:57:39;;;;;;;1.63;1.52;;;;;;;16.63;41.15;97062.69;5053158;28;20571;-61
2023/04/12 10:00:11;;;;;;;2.10;2.00;;;;;;;16.70;40.16;97043.53;5053414;28;20188;-61
2023/04/12 10:02:37;;;;;;;2.13;1.90;;;;;;;17.01;40.09;97080.81;5053719;28;20181;-61
2023/04/12 10:05:03;;;;;;;5.80;1.70;;;;;;;16.89;39.77;97063.09;5052875;28;20177;-61
2023/04/12 10:07:29;;;;;;;2.05;1.95;;;;;;;16.80;39.75;97048.50;5053190;28;20205;-61
2023/04/12 10:09:58;;;;;;;2.20;2.00;;;;;;;16.95;40.07;97036.25;5053576;28;20173;-61
2023/04/12 10:12:24;;;;;;;2.08;1.98;;;;;;;17.10;39.03;97034.50;5053535;28;20209;-61
2023/04/12 10:14:51;;;;;;;2.33;2.17;;;;;;;17.34;39.81;97050.75;5053402;28;20177;-61
2023/04/12 10:17:19;;;;;;;2.20;2.00;;;;;;;17.62;39.49;97035.25;5053648;28;20170;-61
2023/04/12 10:19:46;;;;;;;2.28;2.05;;;;;;;17.70;37.74;97037.75;5053577;28;20554;-61
2023/04/12 10:22:11;;;;;;;2.55;2.17;;;;;;;17.54;37.75;97011.84;5053175;28;20205;-61
2023/04/12 10:24:37;;;;;;;1.95;1.85;;;;;;;17.49;36.45;97046.34;5052146;28;20197;-61
2023/04/12 10:27:04;;;;;;;2.25;1.73;;;;;;;17.30;37.08;97005.03;5053188;28;20169;-61
2023/04/12 10:29:33;;;;;;;2.03;1.83;;;;;;;17.37;37.38;97010.38;5053070;28;20242;-61
2023/04/12 10:32:18;;;;;;;2.55;2.20;;;;;;;17.61;36.69;97059.81;5053042;28;20200;-61
2023/04/12 10:34:43;;;;;;;1.95;1.55;;;;;;;17.34;36.33;96974.09;5052943;28;20185;-60
2023/04/12 10:37:09;;;;;;;1.80;1.70;;;;;;;17.44;36.66;97006.06;5052940;28;20674;-61
2023/04/12 10:39:41;;;;;;;2.13;2.03;;;;;;;17.64;36.84;97049.78;5053026;28;20209;-61
2023/04/12 10:42:17;;;;;;;3.08;1.80;;;;;;;17.58;36.24;97060.16;5052978;28;20166;-61
2023/04/12 10:44:42;;;;;;;1.88;1.77;;;;;;;17.22;35.75;96960.69;5052878;28;20188;-61
2023/04/12 10:47:08;;;;;;;2.00;1.90;;;;;;;17.23;35.89;96958.88;5052474;28;20169;-61
2023/04/12 10:49:34;;;;;;;1.65;1.55;;;;;;;17.21;36.35;96968.72;5052809;28;20178;-61
2023/04/12 10:52:02;;;;;;;2.05;1.85;;;;;;;17.94;35.37;97042.69;5052810;28;20232;-61
2023/04/12 10:54:34;;;;;;;2.63;1.73;;;;;;;17.82;35.35;97039.75;5052771;28;20181;-61
2023/04/12 10:57:00;;;;;;;2.15;1.70;;;;;;;17.49;35.57;96988.03;5052608;28;20185;-61
2023/04/12 10:59:58;;;;;;;1.85;1.75;;;;;;;17.73;35.84;97032.19;5052758;28;20185;-61
2023/04/12 11:02:24;;;;;;;1.80;1.65;;;;;;;18.04;35.19;97043.22;5052533;28;20181;-61
2023/04/12 11:05:09;;;;;;;1.90;1.80;;;;;;;18.03;35.09;97024.09;5052560;28;20187;-61
2023/04/12 11:07:42;;;;;;;1.88;1.40;;;;;;;17.97;34.93;97026.63;5052430;28;20197;-61
2023/04/12 11:10:16;;;;;;;3.00;1.70;;;;;;;18.18;35.17;96984.78;5052583;28;20260;-61
2023/04/12 11:12:54;;;;;;;2.00;1.75;;;;;;;18.03;34.65;96971.75;5052305;28;20184;-61
2023/04/12 11:15:19;;;;;;;1.85;1.75;;;;;;;18.09;34.50;97006.84;5049834;28;20185;-61
2023/04/12 11:17:56;;;;;;;1.88;1.65;;;;;;;18.12;34.40;96960.16;5009944;28;20595;-61
2023/04/12 11:20:21;;;;;;;3.25;1.60;;;;;;;18.15;34.58;96958.97;5010373;28;20200;-61
2023/04/12 11:22:49;;;;;;;2.10;1.77;;;;;;;18.81;34.48;97064.19;5010104;28;20195;-61
2023/04/12 11:25:16;;;;;;;1.70;1.60;;;;;;;18.63;33.67;97007.97;5010050;28;20269;-61
2023/04/12 11:27:48;;;;;;;1.10;1.10;;;;;;;18.33;33.84;97041.38;5009969;28;20708;-61
2023/04/12 11:30:14;;;;;;;4.30;1.30;;;;;;;17.91;34.92;97050.91;5010319;28;20186;-61
2023/04/12 11:32:40;;;;;;;1.83;1.25;;;;;;;17.51;37.78;97124.63;5009934;28;20294;-61
2023/04/12 11:35:06;;;;;;;1.02;1.02;;;;;;;16.76;40.08;97089.00;5009646;28;20277;-61